Time;durP1;ratioP1;P1;durP2;ratioP2;P2;SDS_P1;SDS_P2;PMS_P1;PMS_P2;Temp;Humidity;BMP_temperature;BMP_pressure;BME280_temperature;BME280_humidity;BME280_pressure;Samples;Min_cycle;Max_cycle;Signal;HPM_P1;HPM_P2
2023/12/11 00:01:46;;;;;;;5.20;1.27;;;;;;;;;;6121997;23;20018;-84
2023/12/11 00:04:13;;;;;;;3.28;0.88;;;;;;;;;;6096300;23;20025;-85
2023/12/11 00:06:40;;;;;;;4.70;1.23;;;;;;;;;;6096524;23;20030;-83
2023/12/11 00:09:08;;;;;;;4.28;0.80;;;;;;;;;;6096654;23;20026;-83
2023/12/11 00:11:35;;;;;;;4.35;1.20;;;;;;;;;;6096115;23;20133;-86
2023/12/11 00:14:02;;;;;;;3.78;1.38;;;;;;;;;;6096336;23;20021;-84
2023/12/11 00:16:29;;;;;;;8.25;0.82;;;;;;;;;;6094981;23;20076;-85
2023/12/11 00:18:57;;;;;;;4.90;1.33;;;;;;;;;;6095646;23;20022;-88
2023/12/11 00:21:25;;;;;;;6.75;0.80;;;;;;;;;;6096518;23;20018;-87
2023/12/11 00:23:53;;;;;;;3.60;0.90;;;;;;;;;;6096817;23;20079;-88
2023/12/11 00:26:22;;;;;;;5.32;1.17;;;;;;;;;;6096974;23;20076;-89
2023/12/11 00:28:49;;;;;;;3.20;1.10;;;;;;;;;;6097658;23;20022;-88
2023/12/11 00:31:16;;;;;;;3.25;0.98;;;;;;;;;;6122303;23;20026;-86
2023/12/11 00:33:44;;;;;;;3.75;1.10;;;;;;;;;;6096822;23;20040;-85
2023/12/11 00:36:11;;;;;;;8.68;1.00;;;;;;;;;;6097068;23;20036;-88
2023/12/11 00:38:39;;;;;;;3.95;0.95;;;;;;;;;;6123193;23;20455;-86
2023/12/11 00:41:07;;;;;;;2.88;0.85;;;;;;;;;;6097299;23;20022;-87
2023/12/11 00:43:34;;;;;;;2.65;0.60;;;;;;;;;;6097332;23;20033;-86
2023/12/11 00:46:15;;;;;;;4.10;1.13;;;;;;;;;;6122541;23;20026;-87
2023/12/11 00:48:43;;;;;;;2.50;1.00;;;;;;;;;;6096837;23;20486;-85
2023/12/11 00:51:20;;;;;;;3.60;1.20;;;;;;;;;;6122200;23;20041;-87
2023/12/11 00:53:48;;;;;;;6.68;1.23;;;;;;;;;;6096861;23;20014;-85
2023/12/11 00:56:15;;;;;;;5.65;1.10;;;;;;;;;;6122622;23;20079;-84
2023/12/11 00:58:43;;;;;;;4.72;1.35;;;;;;;;;;6122664;23;20026;-86
2023/12/11 01:01:10;;;;;;;4.10;0.80;;;;;;;;;;6096837;23;20036;-84
2023/12/11 01:03:38;;;;;;;2.78;0.90;;;;;;;;;;6097020;23;20097;-85
2023/12/11 01:06:06;;;;;;;5.40;0.93;;;;;;;;;;6122301;23;20026;-84
2023/12/11 01:08:38;;;;;;;5.40;1.33;;;;;;;;;;6096741;23;20097;-83
2023/12/11 01:11:06;;;;;;;3.63;0.70;;;;;;;;;;6097144;23;20388;-84
2023/12/11 01:13:33;;;;;;;5.68;1.35;;;;;;;;;;6096816;23;20029;-87
2023/12/11 01:16:00;;;;;;;3.15;0.98;;;;;;;;;;6097520;23;20026;-85
2023/12/11 01:18:28;;;;;;;2.90;1.27;;;;;;;;;;6098004;23;20042;-86
2023/12/11 01:20:55;;;;;;;5.05;1.42;;;;;;;;;;6096964;23;20405;-88
2023/12/11 01:23:22;;;;;;;4.93;1.40;;;;;;;;;;6096597;23;20026;-85
2023/12/11 01:25:49;;;;;;;4.65;0.98;;;;;;;;;;6097002;23;20026;-84
2023/12/11 01:28:18;;;;;;;5.20;1.15;;;;;;;;;;6097061;23;20025;-86
2023/12/11 01:30:45;;;;;;;3.90;1.10;;;;;;;;;;6096755;23;20360;-87
2023/12/11 01:33:13;;;;;;;3.78;1.00;;;;;;;;;;6096405;23;20021;-87
2023/12/11 01:35:40;;;;;;;5.38;1.20;;;;;;;;;;6096609;23;20041;-86
2023/12/11 01:38:08;;;;;;;4.78;1.15;;;;;;;;;;6096673;23;20478;-87
2023/12/11 01:40:35;;;;;;;1.95;0.80;;;;;;;;;;6122598;23;20025;-85
2023/12/11 01:43:15;;;;;;;5.75;1.50;;;;;;;;;;6096895;23;20060;-85
2023/12/11 01:45:46;;;;;;;4.95;1.10;;;;;;;;;;6097297;23;20060;-87
2023/12/11 01:48:14;;;;;;;4.75;1.30;;;;;;;;;;6121969;23;20393;-87
2023/12/11 01:50:41;;;;;;;5.95;1.55;;;;;;;;;;6122150;23;20463;-86
2023/12/11 01:53:09;;;;;;;4.68;1.50;;;;;;;;;;6096368;23;20018;-88
2023/12/11 01:55:37;;;;;;;4.22;1.05;;;;;;;;;;6096827;23;20021;-87
2023/12/11 01:58:05;;;;;;;2.22;0.85;;;;;;;;;;6096836;23;20071;-88
2023/12/11 02:00:32;;;;;;;5.32;1.30;;;;;;;;;;6114347;23;20029;-87
2023/12/11 02:03:00;;;;;;;3.15;0.93;;;;;;;;;;6111085;23;20022;-87
2023/12/11 02:05:27;;;;;;;6.18;1.02;;;;;;;;;;6100786;23;20033;-87
2023/12/11 02:07:54;;;;;;;4.03;0.80;;;;;;;;;;6099337;23;20034;-87
2023/12/11 02:10:21;;;;;;;3.08;1.00;;;;;;;;;;6097898;23;20022;-85
2023/12/11 02:12:49;;;;;;;2.05;0.73;;;;;;;;;;6097809;23;20462;-89
2023/12/11 02:15:36;;;;;;;2.60;0.85;;;;;;;;;;6093828;23;20018;-85
2023/12/11 02:18:03;;;;;;;4.30;0.88;;;;;;;;;;6092568;23;20053;-89
2023/12/11 02:20:30;;;;;;;3.88;0.68;;;;;;;;;;6093227;23;20068;-87
2023/12/11 02:22:58;;;;;;;4.30;1.10;;;;;;;;;;6118027;23;20026;-86
2023/12/11 02:25:26;;;;;;;4.05;1.40;;;;;;;;;;6116264;23;20052;-86
2023/12/11 02:27:53;;;;;;;6.35;1.10;;;;;;;;;;6099729;23;20243;-87
2023/12/11 02:30:20;;;;;;;3.95;1.00;;;;;;;;;;6098830;23;20029;-87
2023/12/11 02:32:47;;;;;;;5.45;1.13;;;;;;;;;;6100605;23;20057;-86
2023/12/11 02:35:15;;;;;;;4.85;0.95;;;;;;;;;;6095775;23;20093;-86
2023/12/11 02:37:42;;;;;;;3.63;1.20;;;;;;;;;;6101228;23;20335;-86
2023/12/11 02:40:09;;;;;;;5.90;0.88;;;;;;;;;;6096498;23;20089;-86
2023/12/11 02:42:36;;;;;;;4.65;1.20;;;;;;;;;;6097185;23;20471;-85
2023/12/11 02:45:04;;;;;;;4.65;1.52;;;;;;;;;;6095923;23;20472;-87
2023/12/11 02:47:31;;;;;;;3.20;1.10;;;;;;;;;;6095146;23;20451;-87
2023/12/11 02:49:59;;;;;;;6.20;0.98;;;;;;;;;;6098530;23;20027;-87
2023/12/11 02:52:26;;;;;;;3.30;1.00;;;;;;;;;;6094658;23;20049;-87
2023/12/11 02:54:53;;;;;;;3.15;1.40;;;;;;;;;;6095813;23;20030;-86
2023/12/11 02:57:21;;;;;;;5.55;0.70;;;;;;;;;;6098178;23;20022;-87
2023/12/11 02:59:48;;;;;;;4.47;0.80;;;;;;;;;;6098564;23;20041;-86
2023/12/11 03:02:15;;;;;;;3.78;0.77;;;;;;;;;;6098027;23;20023;-85
2023/12/11 03:04:42;;;;;;;3.17;1.30;;;;;;;;;;6098579;23;20402;-87
2023/12/11 03:07:09;;;;;;;6.05;0.90;;;;;;;;;;6098811;23;20022;-86
2023/12/11 03:09:37;;;;;;;6.95;1.38;;;;;;;;;;6095745;23;20029;-87
2023/12/11 03:12:04;;;;;;;4.75;0.85;;;;;;;;;;6097867;23;20028;-87
2023/12/11 03:14:31;;;;;;;3.88;1.27;;;;;;;;;;6096600;23;20019;-85
2023/12/11 03:16:58;;;;;;;6.15;0.85;;;;;;;;;;6101384;23;20019;-87
2023/12/11 03:19:25;;;;;;;3.17;0.80;;;;;;;;;;6100841;23;20072;-85
2023/12/11 03:21:55;;;;;;;6.95;1.10;;;;;;;;;;6100779;23;20049;-86
2023/12/11 03:24:23;;;;;;;4.82;1.35;;;;;;;;;;6100848;23;20033;-85
2023/12/11 03:26:50;;;;;;;4.20;0.70;;;;;;;;;;6100430;23;20026;-86
2023/12/11 03:29:17;;;;;;;6.03;1.10;;;;;;;;;;6100663;23;20030;-86
2023/12/11 03:31:44;;;;;;;4.90;1.10;;;;;;;;;;6100888;23;20026;-86
2023/12/11 03:34:11;;;;;;;4.45;0.90;;;;;;;;;;6099190;23;20068;-86
2023/12/11 03:36:39;;;;;;;5.75;1.33;;;;;;;;;;6125893;23;20019;-86
2023/12/11 03:39:07;;;;;;;2.72;1.20;;;;;;;;;;6099424;23;20093;-86
2023/12/11 03:41:34;;;;;;;3.90;0.93;;;;;;;;;;6099041;23;20097;-87
2023/12/11 03:44:01;;;;;;;2.92;0.68;;;;;;;;;;6099447;23;20080;-85
2023/12/11 03:46:29;;;;;;;5.22;1.00;;;;;;;;;;6098998;23;20490;-85
2023/12/11 03:48:56;;;;;;;4.65;0.85;;;;;;;;;;6124432;23;20026;-85
2023/12/11 03:51:23;;;;;;;6.15;1.58;;;;;;;;;;6097510;23;20083;-86
2023/12/11 03:53:50;;;;;;;5.65;1.10;;;;;;;;;;6098114;23;20029;-85
2023/12/11 03:56:18;;;;;;;3.28;0.90;;;;;;;;;;6098825;23;20042;-86
2023/12/11 03:58:45;;;;;;;3.95;1.25;;;;;;;;;;6099174;23;20022;-86
2023/12/11 04:01:12;;;;;;;5.65;1.20;;;;;;;;;;6125659;23;20532;-87
2023/12/11 04:03:39;;;;;;;5.55;1.58;;;;;;;;;;6099542;23;20025;-86
2023/12/11 04:06:07;;;;;;;3.08;0.93;;;;;;;;;;6099476;23;20072;-84
2023/12/11 04:08:37;;;;;;;1.88;0.95;;;;;;;;;;6124376;23;20037;-86
2023/12/11 04:11:04;;;;;;;6.55;1.50;;;;;;;;;;6099017;23;20030;-86
2023/12/11 04:13:32;;;;;;;4.78;0.88;;;;;;;;;;6098696;23;20091;-86
2023/12/11 04:15:59;;;;;;;5.72;1.40;;;;;;;;;;6104347;23;20026;-85
2023/12/11 04:18:26;;;;;;;8.55;1.45;;;;;;;;;;6121770;23;20025;-84
2023/12/11 04:20:53;;;;;;;6.43;1.23;;;;;;;;;;6122045;23;20075;-84
2023/12/11 04:23:21;;;;;;;4.10;1.30;;;;;;;;;;6122424;23;20049;-84
2023/12/11 04:25:48;;;;;;;7.38;1.50;;;;;;;;;;6122337;23;20080;-86
2023/12/11 04:28:15;;;;;;;10.23;3.85;;;;;;;;;;6121994;23;20025;-84
2023/12/11 04:30:42;;;;;;;15.82;6.85;;;;;;;;;;6122327;23;20105;-84
2023/12/11 04:33:09;;;;;;;4.57;1.85;;;;;;;;;;6122778;23;20045;-85
2023/12/11 04:35:37;;;;;;;7.35;1.30;;;;;;;;;;6121440;23;20068;-85
2023/12/11 04:38:04;;;;;;;5.40;3.78;;;;;;;;;;6121770;23;20072;-85
2023/12/11 04:40:31;;;;;;;4.95;1.60;;;;;;;;;;6122068;23;20022;-84
2023/12/11 04:42:58;;;;;;;3.83;1.42;;;;;;;;;;6121808;23;20077;-84
2023/12/11 04:45:26;;;;;;;5.03;1.77;;;;;;;;;;6122134;23;20022;-84
2023/12/11 04:47:53;;;;;;;7.15;0.98;;;;;;;;;;6121726;23;20030;-85
2023/12/11 04:50:20;;;;;;;4.75;1.63;;;;;;;;;;6123390;23;20030;-84
2023/12/11 04:52:48;;;;;;;5.57;1.00;;;;;;;;;;6121971;23;20459;-85
2023/12/11 04:55:15;;;;;;;5.78;1.83;;;;;;;;;;6136974;23;20018;-84
2023/12/11 04:57:43;;;;;;;3.97;1.70;;;;;;;;;;6139922;23;20028;-85
2023/12/11 05:00:10;;;;;;;4.38;1.98;;;;;;;;;;6127858;23;20026;-85
2023/12/11 05:02:37;;;;;;;3.40;2.20;;;;;;;;;;6128679;23;20022;-84
2023/12/11 05:05:05;;;;;;;6.45;2.63;;;;;;;;;;6127389;23;20022;-85
2023/12/11 05:07:32;;;;;;;4.35;1.83;;;;;;;;;;6126422;23;20025;-85
2023/12/11 05:09:59;;;;;;;3.30;1.50;;;;;;;;;;6122255;23;20022;-86
2023/12/11 05:12:27;;;;;;;6.57;2.00;;;;;;;;;;6122511;23;20022;-85
2023/12/11 05:14:54;;;;;;;5.38;1.88;;;;;;;;;;6124810;23;20097;-85
2023/12/11 05:17:21;;;;;;;5.90;2.25;;;;;;;;;;6125289;23;20018;-85
2023/12/11 05:19:48;;;;;;;8.57;3.80;;;;;;;;;;6124546;23;20018;-85
2023/12/11 05:22:16;;;;;;;7.30;4.55;;;;;;;;;;6124199;23;20027;-85
2023/12/11 05:24:43;;;;;;;6.78;2.13;;;;;;;;;;6121425;23;20033;-86
2023/12/11 05:27:11;;;;;;;2.78;1.10;;;;;;;;;;6125259;23;20021;-84
2023/12/11 05:29:39;;;;;;;4.00;1.10;;;;;;;;;;6120964;23;20339;-85
2023/12/11 05:32:06;;;;;;;2.38;0.88;;;;;;;;;;6125521;23;20025;-84
2023/12/11 05:34:33;;;;;;;5.20;1.60;;;;;;;;;;6128339;23;20101;-84
2023/12/11 05:37:01;;;;;;;5.13;2.08;;;;;;;;;;6130470;23;20079;-84
2023/12/11 05:39:28;;;;;;;4.55;1.30;;;;;;;;;;6130114;23;20048;-84
2023/12/11 05:41:55;;;;;;;5.18;2.33;;;;;;;;;;6130933;23;20028;-85
2023/12/11 05:44:23;;;;;;;9.98;1.40;;;;;;;;;;6131433;23;20074;-84
2023/12/11 05:46:50;;;;;;;8.82;1.23;;;;;;;;;;6129243;23;20018;-85
2023/12/11 05:49:17;;;;;;;7.50;1.30;;;;;;;;;;6130119;23;20079;-84
2023/12/11 05:51:48;;;;;;;4.40;1.17;;;;;;;;;;6130038;23;20042;-84
2023/12/11 05:54:15;;;;;;;6.18;2.22;;;;;;;;;;6126631;23;20458;-85
2023/12/11 05:56:42;;;;;;;4.00;1.17;;;;;;;;;;6126549;23;20026;-85
2023/12/11 05:59:10;;;;;;;5.85;1.52;;;;;;;;;;6128168;23;20026;-86
2023/12/11 06:01:37;;;;;;;4.47;1.10;;;;;;;;;;6126140;23;20052;-85
2023/12/11 06:04:05;;;;;;;3.40;0.90;;;;;;;;;;6125574;23;20022;-84
2023/12/11 06:06:32;;;;;;;4.47;1.20;;;;;;;;;;6125513;23;20069;-85
2023/12/11 06:09:00;;;;;;;5.85;1.92;;;;;;;;;;6126108;23;20018;-86
2023/12/11 06:11:27;;;;;;;4.50;1.00;;;;;;;;;;6127435;23;20068;-85
2023/12/11 06:13:54;;;;;;;3.63;0.93;;;;;;;;;;6127124;23;20064;-85
2023/12/11 06:16:21;;;;;;;2.55;1.23;;;;;;;;;;6124919;23;20022;-84
2023/12/11 06:18:49;;;;;;;3.45;0.90;;;;;;;;;;6126509;23;20022;-84
2023/12/11 06:21:20;;;;;;;5.18;1.08;;;;;;;;;;6127725;23;20029;-86
2023/12/11 06:23:48;;;;;;;2.20;1.00;;;;;;;;;;6128309;23;20018;-85
2023/12/11 06:26:28;;;;;;;2.58;1.10;;;;;;;;;;6127968;23;20433;-86
2023/12/11 06:28:57;;;;;;;4.75;1.15;;;;;;;;;;6128444;23;20026;-84
2023/12/11 06:31:26;;;;;;;4.10;2.15;;;;;;;;;;6129196;23;20060;-84
2023/12/11 06:33:54;;;;;;;24.90;10.77;;;;;;;;;;6130398;23;20022;-84
2023/12/11 06:36:21;;;;;;;12.13;5.30;;;;;;;;;;6131053;23;20022;-84
2023/12/11 06:38:52;;;;;;;6.60;1.70;;;;;;;;;;6132062;23;20022;-84
2023/12/11 06:41:20;;;;;;;20.38;7.70;;;;;;;;;;6132027;23;20022;-85
2023/12/11 06:43:48;;;;;;;11.10;4.03;;;;;;;;;;6132248;23;20048;-84
2023/12/11 06:46:17;;;;;;;5.05;2.60;;;;;;;;;;6131700;23;20025;-85
2023/12/11 06:48:45;;;;;;;3.47;1.80;;;;;;;;;;6132028;23;20443;-85
2023/12/11 06:51:17;;;;;;;7.72;1.10;;;;;;;;;;6133940;23;20022;-84
2023/12/11 06:53:46;;;;;;;4.57;1.20;;;;;;;;;;6140848;23;20026;-84
2023/12/11 06:56:19;;;;;;;5.57;2.00;;;;;;;;;;6132257;23;20071;-85
2023/12/11 06:58:47;;;;;;;11.20;2.30;;;;;;;;;;6133363;23;20116;-85
2023/12/11 07:01:15;;;;;;;5.72;1.50;;;;;;;;;;6131576;23;20028;-85
2023/12/11 07:03:45;;;;;;;7.90;1.40;;;;;;;;;;6131544;23;20074;-84
2023/12/11 07:06:13;;;;;;;3.40;1.10;;;;;;;;;;6130524;23;20033;-84
2023/12/11 07:08:40;;;;;;;6.70;1.70;;;;;;;;;;6133968;23;20045;-84
2023/12/11 07:11:08;;;;;;;6.97;2.80;;;;;;;;;;6132210;23;20026;-83
2023/12/11 07:13:36;;;;;;;7.72;2.08;;;;;;;;;;6132182;23;20087;-85
2023/12/11 07:16:04;;;;;;;4.95;1.05;;;;;;;;;;6130231;23;20018;-85
2023/12/11 07:18:33;;;;;;;6.90;1.33;;;;;;;;;;6131085;23;20101;-85
2023/12/11 07:21:11;;;;;;;5.22;1.35;;;;;;;;;;6131971;23;20041;-85
2023/12/11 07:23:39;;;;;;;9.73;1.45;;;;;;;;;;6129863;23;20018;-85
2023/12/11 07:26:09;;;;;;;5.38;1.20;;;;;;;;;;6132682;23;20026;-85
2023/12/11 07:28:38;;;;;;;8.85;1.40;;;;;;;;;;6131522;23;20033;-85
2023/12/11 07:31:06;;;;;;;6.88;1.70;;;;;;;;;;6131616;23;20022;-84
2023/12/11 07:33:34;;;;;;;6.85;1.45;;;;;;;;;;6130673;23;20026;-85
2023/12/11 07:36:03;;;;;;;10.95;1.40;;;;;;;;;;6130574;23;20105;-85
2023/12/11 07:38:31;;;;;;;10.15;1.85;;;;;;;;;;6132167;23;20029;-85
2023/12/11 07:40:58;;;;;;;5.78;1.15;;;;;;;;;;6132029;23;20022;-86
2023/12/11 07:43:27;;;;;;;6.35;1.77;;;;;;;;;;6129610;23;20018;-85
2023/12/11 07:45:56;;;;;;;5.72;1.45;;;;;;;;;;6131990;23;20101;-86
2023/12/11 07:48:23;;;;;;;2.50;1.00;;;;;;;;;;6129709;23;20022;-84
2023/12/11 07:50:51;;;;;;;3.88;1.65;;;;;;;;;;6130408;23;20059;-85
2023/12/11 07:53:19;;;;;;;5.45;2.10;;;;;;;;;;6131621;23;20030;-85
2023/12/11 07:55:47;;;;;;;5.47;1.60;;;;;;;;;;6130732;23;20018;-85
2023/12/11 07:58:16;;;;;;;4.50;1.85;;;;;;;;;;6129775;23;20017;-84
2023/12/11 08:00:43;;;;;;;13.55;3.70;;;;;;;;;;6131341;23;20041;-85
2023/12/11 08:03:10;;;;;;;7.85;2.67;;;;;;;;;;6133976;23;20070;-84
2023/12/11 08:05:39;;;;;;;6.50;2.20;;;;;;;;;;6132493;23;20026;-85
2023/12/11 08:08:06;;;;;;;3.67;1.80;;;;;;;;;;6133012;23;20032;-84
2023/12/11 08:10:34;;;;;;;5.70;1.67;;;;;;;;;;6134206;23;20033;-84
2023/12/11 08:13:02;;;;;;;9.00;2.03;;;;;;;;;;6131483;23;20467;-85
2023/12/11 08:15:32;;;;;;;5.95;2.40;;;;;;;;;;6133039;23;20026;-84
2023/12/11 08:18:01;;;;;;;8.40;4.50;;;;;;;;;;6132126;23;20061;-84
2023/12/11 08:20:28;;;;;;;10.13;3.13;;;;;;;;;;6131639;23;20332;-85
2023/12/11 08:22:56;;;;;;;7.90;3.35;;;;;;;;;;6132081;23;20069;-85
2023/12/11 08:25:25;;;;;;;7.05;3.30;;;;;;;;;;6131812;23;20026;-85
2023/12/11 08:27:52;;;;;;;7.30;2.88;;;;;;;;;;6132447;23;20026;-84
2023/12/11 08:30:20;;;;;;;6.60;3.00;;;;;;;;;;6133933;23;20026;-84
2023/12/11 08:32:49;;;;;;;4.88;2.25;;;;;;;;;;6133160;23;20553;-85
2023/12/11 08:35:17;;;;;;;6.40;2.42;;;;;;;;;;6131585;23;20022;-85
2023/12/11 08:37:45;;;;;;;9.45;2.10;;;;;;;;;;6132884;23;20018;-86
2023/12/11 08:40:15;;;;;;;8.60;2.13;;;;;;;;;;6132184;23;20397;-84
2023/12/11 08:42:43;;;;;;;5.30;1.13;;;;;;;;;;6132595;23;20342;-84
2023/12/11 08:45:10;;;;;;;4.97;2.17;;;;;;;;;;6131005;23;20018;-84
2023/12/11 08:47:41;;;;;;;6.88;1.88;;;;;;;;;;6130797;23;20025;-84
2023/12/11 08:50:10;;;;;;;6.45;1.95;;;;;;;;;;6131421;23;20098;-83
2023/12/11 08:52:38;;;;;;;4.60;1.38;;;;;;;;;;6134211;23;20029;-85
2023/12/11 08:55:06;;;;;;;3.40;1.10;;;;;;;;;;6130794;23;20087;-85
2023/12/11 08:57:36;;;;;;;7.97;1.13;;;;;;;;;;6130369;23;20071;-84
2023/12/11 09:00:05;;;;;;;3.80;0.90;;;;;;;;;;6129974;23;20022;-84
2023/12/11 09:02:33;;;;;;;3.92;0.98;;;;;;;;;;6131068;23;20026;-85
2023/12/11 09:05:01;;;;;;;5.03;1.33;;;;;;;;;;6130020;23;20022;-86
2023/12/11 09:07:29;;;;;;;3.92;1.33;;;;;;;;;;6131359;23;20022;-84
2023/12/11 09:09:57;;;;;;;2.58;1.83;;;;;;;;;;6132142;23;20018;-85
2023/12/11 09:12:25;;;;;;;3.80;1.20;;;;;;;;;;6130037;23;20032;-86
2023/12/11 09:15:00;;;;;;;3.15;1.00;;;;;;;;;;6129469;23;20022;-85
2023/12/11 09:17:28;;;;;;;5.82;1.23;;;;;;;;;;6132327;23;20029;-85
2023/12/11 09:19:57;;;;;;;3.05;1.05;;;;;;;;;;6129892;23;20018;-85
2023/12/11 09:22:25;;;;;;;10.27;1.02;;;;;;;;;;6129224;23;20022;-85
2023/12/11 09:24:52;;;;;;;1.70;0.73;;;;;;;;;;6134339;23;20026;-84
2023/12/11 09:27:21;;;;;;;6.15;1.23;;;;;;;;;;6137586;23;20409;-85
2023/12/11 09:29:48;;;;;;;3.47;0.90;;;;;;;;;;6132710;23;20028;-87
2023/12/11 09:32:18;;;;;;;2.83;0.82;;;;;;;;;;6130892;23;20044;-85
2023/12/11 09:34:46;;;;;;;3.75;0.75;;;;;;;;;;6131487;23;20097;-85
2023/12/11 09:37:15;;;;;;;4.43;1.00;;;;;;;;;;6132518;23;20022;-85
2023/12/11 09:39:43;;;;;;;4.07;1.00;;;;;;;;;;6131203;23;20481;-85
2023/12/11 09:42:12;;;;;;;3.88;1.00;;;;;;;;;;6129388;23;20041;-86
2023/12/11 09:44:42;;;;;;;4.65;0.95;;;;;;;;;;6124334;23;20025;-86
2023/12/11 09:47:10;;;;;;;3.08;0.82;;;;;;;;;;6124585;23;20076;-83
2023/12/11 09:49:38;;;;;;;5.78;1.08;;;;;;;;;;6126211;23;20025;-86
2023/12/11 09:52:06;;;;;;;2.13;0.60;;;;;;;;;;6125154;23;20079;-84
2023/12/11 09:54:33;;;;;;;3.80;0.77;;;;;;;;;;6126561;23;20068;-84
2023/12/11 09:57:01;;;;;;;1.60;1.00;;;;;;;;;;6126315;23;20573;-84
2023/12/11 09:59:30;;;;;;;1.40;0.70;;;;;;;;;;6124844;23;20045;-85
2023/12/11 10:01:57;;;;;;;2.70;0.98;;;;;;;;;;6126714;23;20022;-84
2023/12/11 10:04:25;;;;;;;3.90;0.60;;;;;;;;;;6123861;23;20067;-85
2023/12/11 10:06:53;;;;;;;1.98;0.70;;;;;;;;;;6124628;23;20030;-84
2023/12/11 10:09:27;;;;;;;1.95;0.60;;;;;;;;;;6123812;23;20022;-85
2023/12/11 10:11:58;;;;;;;4.20;0.90;;;;;;;;;;6123717;23;20018;-84
2023/12/11 10:14:28;;;;;;;3.30;0.68;;;;;;;;;;6124397;23;20022;-85
2023/12/11 10:16:56;;;;;;;3.67;0.60;;;;;;;;;;6103593;23;20090;-87
2023/12/11 10:19:30;;;;;;;3.33;0.85;;;;;;;;;;6123526;23;20022;-85
2023/12/11 10:21:58;;;;;;;2.22;0.80;;;;;;;;;;6098241;23;20022;-86
2023/12/11 10:24:25;;;;;;;2.65;0.65;;;;;;;;;;6097875;23;20368;-86
2023/12/11 10:26:56;;;;;;;2.42;0.60;;;;;;;;;;6124391;23;20061;-86
2023/12/11 10:29:25;;;;;;;1.83;0.77;;;;;;;;;;6097808;23;20057;-86
2023/12/11 10:31:53;;;;;;;1.10;0.50;;;;;;;;;;6097968;23;20029;-85
2023/12/11 10:34:41;;;;;;;1.15;0.40;;;;;;;;;;6097509;23;20076;-87
2023/12/11 10:37:11;;;;;;;4.28;1.13;;;;;;;;;;6123485;23;20014;-85
2023/12/11 10:39:38;;;;;;;2.58;0.60;;;;;;;;;;6097884;23;20097;-86
2023/12/11 10:42:16;;;;;;;2.10;0.68;;;;;;;;;;6098247;23;20022;-85
2023/12/11 10:44:44;;;;;;;3.30;1.52;;;;;;;;;;6098147;23;20022;-86
2023/12/11 10:47:19;;;;;;;3.33;0.70;;;;;;;;;;6124047;23;20037;-84
2023/12/11 10:49:47;;;;;;;4.05;0.82;;;;;;;;;;6097722;23;20033;-87
2023/12/11 10:52:14;;;;;;;4.53;0.80;;;;;;;;;;6123694;23;20022;-86
2023/12/11 10:54:42;;;;;;;2.33;0.80;;;;;;;;;;6103630;23;20022;-86
2023/12/11 10:57:13;;;;;;;3.95;0.90;;;;;;;;;;6104037;23;20022;-86
2023/12/11 10:59:41;;;;;;;4.13;1.10;;;;;;;;;;6104901;23;20070;-87
2023/12/11 11:02:09;;;;;;;3.00;0.98;;;;;;;;;;6103540;23;20022;-86
2023/12/11 11:04:39;;;;;;;125.45;6.72;;;;;;;;;;6102636;23;20022;-87
2023/12/11 11:07:18;;;;;;;6.00;0.73;;;;;;;;;;6103503;23;20097;-87
2023/12/11 11:10:00;;;;;;;2.78;0.90;;;;;;;;;;6101721;23;20026;-87
2023/12/11 11:12:34;;;;;;;2.40;0.63;;;;;;;;;;6102059;23;20079;-87
2023/12/11 11:15:01;;;;;;;3.83;1.00;;;;;;;;;;6100981;23;20075;-87
2023/12/11 11:17:47;;;;;;;5.18;1.10;;;;;;;;;;6099800;23;20101;-87
2023/12/11 11:20:15;;;;;;;3.97;1.35;;;;;;;;;;6099371;23;20413;-86
2023/12/11 11:22:46;;;;;;;3.13;1.27;;;;;;;;;;6097600;23;20022;-87
2023/12/11 11:25:29;;;;;;;8.88;1.70;;;;;;;;;;6122720;23;20481;-86
2023/12/11 11:27:57;;;;;;;6.72;1.85;;;;;;;;;;6097475;23;20026;-86
2023/12/11 11:30:44;;;;;;;5.07;1.77;;;;;;;;;;6097388;23;20079;-85
2023/12/11 11:33:11;;;;;;;7.05;1.42;;;;;;;;;;6097707;23;20022;-86
2023/12/11 11:35:51;;;;;;;3.97;1.40;;;;;;;;;;6097130;23;20022;-85
2023/12/11 11:38:20;;;;;;;3.38;1.25;;;;;;;;;;6097508;23;20017;-86
2023/12/11 11:40:48;;;;;;;3.90;1.33;;;;;;;;;;6096407;23;20022;-86
2023/12/11 11:43:16;;;;;;;2.30;0.82;;;;;;;;;;6097210;23;20033;-83
2023/12/11 11:45:43;;;;;;;5.57;1.10;;;;;;;;;;6122994;23;20018;-87
2023/12/11 11:48:11;;;;;;;4.28;1.10;;;;;;;;;;6097205;23;20096;-86
2023/12/11 11:50:50;;;;;;;7.60;1.10;;;;;;;;;;6097165;23;20074;-86
2023/12/11 11:53:19;;;;;;;4.13;1.20;;;;;;;;;;6096645;23;20354;-83
2023/12/11 11:55:46;;;;;;;5.05;0.93;;;;;;;;;;6121893;23;20026;-87
2023/12/11 11:58:14;;;;;;;8.50;0.93;;;;;;;;;;6096783;23;20018;-84
2023/12/11 12:00:42;;;;;;;4.43;0.95;;;;;;;;;;6096818;23;20025;-84
2023/12/11 12:03:10;;;;;;;6.63;1.17;;;;;;;;;;6097305;23;20076;-81
2023/12/11 12:05:39;;;;;;;6.63;0.95;;;;;;;;;;6121481;23;20025;-87
2023/12/11 12:08:07;;;;;;;4.15;1.40;;;;;;;;;;6096584;23;20386;-87
2023/12/11 12:10:35;;;;;;;4.72;0.82;;;;;;;;;;6097061;23;20087;-85
2023/12/11 12:13:04;;;;;;;4.22;1.50;;;;;;;;;;6096287;23;20033;-84
2023/12/11 12:15:41;;;;;;;7.65;1.42;;;;;;;;;;6122333;23;20025;-87
2023/12/11 12:18:09;;;;;;;6.43;1.50;;;;;;;;;;6097156;23;20026;-87
2023/12/11 12:20:36;;;;;;;7.57;1.30;;;;;;;;;;6097843;23;20022;-87
2023/12/11 12:23:07;;;;;;;5.43;1.08;;;;;;;;;;6097696;23;20026;-87
2023/12/11 12:25:34;;;;;;;5.38;1.45;;;;;;;;;;6097435;23;20328;-87
2023/12/11 12:28:06;;;;;;;5.63;1.05;;;;;;;;;;6126602;23;20022;-88
2023/12/11 12:30:34;;;;;;;5.78;0.82;;;;;;;;;;6103661;23;20463;-87
2023/12/11 12:33:03;;;;;;;5.72;0.90;;;;;;;;;;6103157;23;20026;-87
2023/12/11 12:35:32;;;;;;;4.95;1.10;;;;;;;;;;6100518;23;20026;-87
2023/12/11 12:38:01;;;;;;;6.32;1.17;;;;;;;;;;6096934;23;20486;-87
2023/12/11 12:40:28;;;;;;;5.97;1.50;;;;;;;;;;6097545;23;20022;-86
2023/12/11 12:42:55;;;;;;;5.10;0.98;;;;;;;;;;6098009;23;20053;-84
2023/12/11 12:45:28;;;;;;;5.13;1.42;;;;;;;;;;6098512;23;20390;-86
2023/12/11 12:48:03;;;;;;;5.90;0.90;;;;;;;;;;6123029;23;20022;-86
2023/12/11 12:50:31;;;;;;;9.55;1.52;;;;;;;;;;6123328;23;20045;-86
2023/12/11 12:53:10;;;;;;;3.40;1.20;;;;;;;;;;6097588;23;20029;-85
2023/12/11 12:55:39;;;;;;;5.40;1.10;;;;;;;;;;6097400;23;20033;-85
2023/12/11 12:58:07;;;;;;;6.03;1.20;;;;;;;;;;6098167;23;20022;-86
2023/12/11 13:00:36;;;;;;;8.18;1.25;;;;;;;;;;6100772;23;20018;-86
2023/12/11 13:03:06;;;;;;;9.05;1.40;;;;;;;;;;6103278;23;20129;-85
2023/12/11 13:05:40;;;;;;;5.85;1.48;;;;;;;;;;6127422;23;20022;-86
2023/12/11 13:08:08;;;;;;;7.88;1.65;;;;;;;;;;6128417;23;20074;-86
2023/12/11 13:10:36;;;;;;;10.85;1.58;;;;;;;;;;6127289;23;20088;-86
2023/12/11 13:13:14;;;;;;;7.15;1.73;;;;;;;;;;6099834;23;20026;-86
2023/12/11 13:15:42;;;;;;;6.95;1.70;;;;;;;;;;6098752;23;20104;-86
2023/12/11 13:18:14;;;;;;;8.20;1.25;;;;;;;;;;6124476;23;20025;-87
2023/12/11 13:20:42;;;;;;;7.53;1.73;;;;;;;;;;6097926;23;20516;-87
2023/12/11 13:23:10;;;;;;;5.75;1.30;;;;;;;;;;6123326;23;20028;-86
2023/12/11 13:25:37;;;;;;;6.97;1.48;;;;;;;;;;6098236;23;20025;-84
2023/12/11 13:28:04;;;;;;;7.60;1.70;;;;;;;;;;6097232;23;20026;-85
2023/12/11 13:30:32;;;;;;;4.15;1.38;;;;;;;;;;6098012;23;20084;-85
2023/12/11 13:32:59;;;;;;;6.03;1.00;;;;;;;;;;6098097;23;20022;-85
2023/12/11 13:35:26;;;;;;;8.98;1.48;;;;;;;;;;6098027;23;20036;-86
2023/12/11 13:37:53;;;;;;;8.25;1.27;;;;;;;;;;6096686;23;20024;-86
2023/12/11 13:40:20;;;;;;;7.10;1.45;;;;;;;;;;6122587;23;20018;-86
2023/12/11 13:42:48;;;;;;;7.65;1.27;;;;;;;;;;6097145;23;20102;-86
2023/12/11 13:45:18;;;;;;;2.92;0.77;;;;;;;;;;6097658;23;20022;-86
2023/12/11 13:47:45;;;;;;;5.10;1.10;;;;;;;;;;6122245;23;20026;-86
2023/12/11 13:50:13;;;;;;;5.10;1.30;;;;;;;;;;6097264;23;20018;-87
2023/12/11 13:52:40;;;;;;;7.65;1.83;;;;;;;;;;6097962;23;20088;-86
2023/12/11 13:55:07;;;;;;;4.70;1.33;;;;;;;;;;6122852;23;20022;-86
2023/12/11 13:57:35;;;;;;;5.78;1.48;;;;;;;;;;6097515;23;20022;-87
2023/12/11 14:00:02;;;;;;;5.13;1.02;;;;;;;;;;6122952;23;20091;-86
2023/12/11 14:02:29;;;;;;;2.95;0.80;;;;;;;;;;6130725;23;20362;-87
2023/12/11 14:05:17;;;;;;;6.90;1.17;;;;;;;;;;6128245;23;20105;-87
2023/12/11 14:07:44;;;;;;;6.20;1.00;;;;;;;;;;6103761;23;20378;-87
2023/12/11 14:10:11;;;;;;;4.05;1.35;;;;;;;;;;6103045;23;20076;-87
2023/12/11 14:12:40;;;;;;;6.05;1.38;;;;;;;;;;6103294;23;20029;-87
2023/12/11 14:15:08;;;;;;;6.55;1.80;;;;;;;;;;6102511;23;20029;-86
2023/12/11 14:17:35;;;;;;;3.67;0.93;;;;;;;;;;6102469;23;20018;-87
2023/12/11 14:20:03;;;;;;;4.05;1.05;;;;;;;;;;6100556;23;20064;-87
2023/12/11 14:22:32;;;;;;;2.60;0.90;;;;;;;;;;6100628;23;20402;-87
2023/12/11 14:24:59;;;;;;;4.47;0.95;;;;;;;;;;6100741;23;20017;-86
2023/12/11 14:27:27;;;;;;;7.10;1.58;;;;;;;;;;6100190;23;20032;-86
2023/12/11 14:29:54;;;;;;;3.53;1.23;;;;;;;;;;6099797;23;20536;-87
2023/12/11 14:32:22;;;;;;;3.17;1.00;;;;;;;;;;6126653;23;20470;-86
2023/12/11 14:34:49;;;;;;;3.05;0.70;;;;;;;;;;6100151;23;20470;-87
2023/12/11 14:37:17;;;;;;;3.67;0.90;;;;;;;;;;6099065;23;20026;-86
2023/12/11 14:39:44;;;;;;;5.30;1.08;;;;;;;;;;6097825;23;20022;-86
2023/12/11 14:42:12;;;;;;;8.90;1.17;;;;;;;;;;6097288;23;20516;-86
2023/12/11 14:44:39;;;;;;;5.15;0.88;;;;;;;;;;6097311;23;20097;-87
2023/12/11 14:47:07;;;;;;;3.00;1.02;;;;;;;;;;6123847;23;20524;-87
2023/12/11 14:49:34;;;;;;;7.38;1.20;;;;;;;;;;6097974;23;20543;-87
2023/12/11 14:52:02;;;;;;;4.28;1.10;;;;;;;;;;6098230;23;20037;-86